sensor_id;sensor_type;location;lat;lon;timestamp;P1;durP1;ratioP1;P2;durP2;ratioP2
34902;SDS011;21114;44.840;0.214;2023-03-01T00:02:17;5.95;;;4.60;;
34902;SDS011;21114;44.840;0.214;2023-03-01T00:04:43;6.28;;;3.75;;
34902;SDS011;21114;44.840;0.214;2023-03-01T00:07:09;6.80;;;4.70;;
34902;SDS011;21114;44.840;0.214;2023-03-01T00:09:36;4.18;;;3.13;;
34902;SDS011;21114;44.840;0.214;2023-03-01T00:12:51;4.28;;;3.45;;
34902;SDS011;21114;44.840;0.214;2023-03-01T00:15:17;6.57;;;3.25;;
34902;SDS011;21114;44.840;0.214;2023-03-01T00:17:43;6.45;;;4.15;;
34902;SDS011;21114;44.840;0.214;2023-03-01T00:20:10;4.22;;;3.53;;
34902;SDS011;21114;44.840;0.214;2023-03-01T00:22:36;4.82;;;3.13;;
34902;SDS011;21114;44.840;0.214;2023-03-01T00:25:03;5.75;;;3.17;;
34902;SDS011;21114;44.840;0.214;2023-03-01T00:27:29;3.70;;;2.85;;
34902;SDS011;21114;44.840;0.214;2023-03-01T00:29:55;4.65;;;3.15;;
34902;SDS011;21114;44.840;0.214;2023-03-01T00:32:21;3.35;;;3.05;;
34902;SDS011;21114;44.840;0.214;2023-03-01T00:34:47;3.45;;;3.15;;
34902;SDS011;21114;44.840;0.214;2023-03-01T00:37:20;5.50;;;4.05;;
34902;SDS011;21114;44.840;0.214;2023-03-01T00:40:11;2.65;;;2.30;;
34902;SDS011;21114;44.840;0.214;2023-03-01T00:42:37;4.65;;;3.55;;
34902;SDS011;21114;44.840;0.214;2023-03-01T00:45:04;5.25;;;3.20;;
34902;SDS011;21114;44.840;0.214;2023-03-01T00:47:30;3.05;;;2.72;;
34902;SDS011;21114;44.840;0.214;2023-03-01T00:49:56;3.88;;;3.47;;
34902;SDS011;21114;44.840;0.214;2023-03-01T00:52:22;4.32;;;3.33;;
34902;SDS011;21114;44.840;0.214;2023-03-01T00:54:48;5.32;;;3.17;;
34902;SDS011;21114;44.840;0.214;2023-03-01T00:57:14;4.57;;;3.05;;
34902;SDS011;21114;44.840;0.214;2023-03-01T00:59:40;3.42;;;2.88;;
34902;SDS011;21114;44.840;0.214;2023-03-01T01:02:06;4.47;;;3.42;;
34902;SDS011;21114;44.840;0.214;2023-03-01T01:04:32;4.25;;;3.47;;
34902;SDS011;21114;44.840;0.214;2023-03-01T01:06:58;3.95;;;3.13;;
34902;SDS011;21114;44.840;0.214;2023-03-01T01:09:24;6.90;;;4.40;;
34902;SDS011;21114;44.840;0.214;2023-03-01T01:11:50;4.95;;;3.42;;
34902;SDS011;21114;44.840;0.214;2023-03-01T01:15:05;4.30;;;2.50;;
34902;SDS011;21114;44.840;0.214;2023-03-01T01:17:31;4.47;;;3.35;;
34902;SDS011;21114;44.840;0.214;2023-03-01T01:19:57;5.40;;;4.28;;
34902;SDS011;21114;44.840;0.214;2023-03-01T01:22:24;4.68;;;3.42;;
34902;SDS011;21114;44.840;0.214;2023-03-01T01:24:50;5.95;;;3.72;;
34902;SDS011;21114;44.840;0.214;2023-03-01T01:27:16;3.15;;;2.83;;
34902;SDS011;21114;44.840;0.214;2023-03-01T01:29:42;4.57;;;3.10;;
34902;SDS011;21114;44.840;0.214;2023-03-01T01:32:08;5.13;;;3.30;;
34902;SDS011;21114;44.840;0.214;2023-03-01T01:34:34;4.82;;;4.32;;
34902;SDS011;21114;44.840;0.214;2023-03-01T01:37:00;4.32;;;3.30;;
34902;SDS011;21114;44.840;0.214;2023-03-01T01:39:27;3.63;;;2.80;;
34902;SDS011;21114;44.840;0.214;2023-03-01T01:41:53;3.38;;;2.80;;
34902;SDS011;21114;44.840;0.214;2023-03-01T01:44:22;4.03;;;2.92;;
34902;SDS011;21114;44.840;0.214;2023-03-01T01:47:37;4.55;;;3.28;;
34902;SDS011;21114;44.840;0.214;2023-03-01T01:50:03;3.67;;;2.97;;
34902;SDS011;21114;44.840;0.214;2023-03-01T01:52:31;3.53;;;3.10;;
34902;SDS011;21114;44.840;0.214;2023-03-01T01:55:47;4.32;;;3.28;;
34902;SDS011;21114;44.840;0.214;2023-03-01T01:59:02;6.22;;;3.75;;
34902;SDS011;21114;44.840;0.214;2023-03-01T02:01:29;4.60;;;3.88;;
34902;SDS011;21114;44.840;0.214;2023-03-01T02:03:55;4.47;;;3.00;;
34902;SDS011;21114;44.840;0.214;2023-03-01T02:06:22;5.43;;;3.15;;
34902;SDS011;21114;44.840;0.214;2023-03-01T02:09:38;6.13;;;3.42;;
34902;SDS011;21114;44.840;0.214;2023-03-01T02:12:04;3.90;;;3.53;;
34902;SDS011;21114;44.840;0.214;2023-03-01T02:14:30;4.45;;;3.17;;
34902;SDS011;21114;44.840;0.214;2023-03-01T02:16:56;4.80;;;3.78;;
34902;SDS011;21114;44.840;0.214;2023-03-01T02:19:28;6.35;;;3.92;;
34902;SDS011;21114;44.840;0.214;2023-03-01T02:22:45;5.43;;;3.70;;
34902;SDS011;21114;44.840;0.214;2023-03-01T02:26:09;4.40;;;3.65;;
34902;SDS011;21114;44.840;0.214;2023-03-01T02:29:26;4.10;;;3.53;;
34902;SDS011;21114;44.840;0.214;2023-03-01T02:32:41;6.18;;;3.88;;
34902;SDS011;21114;44.840;0.214;2023-03-01T02:35:09;6.03;;;4.43;;
34902;SDS011;21114;44.840;0.214;2023-03-01T02:38:25;4.85;;;4.03;;
34902;SDS011;21114;44.840;0.214;2023-03-01T02:41:42;5.80;;;4.10;;
34902;SDS011;21114;44.840;0.214;2023-03-01T02:44:58;6.07;;;4.85;;
34902;SDS011;21114;44.840;0.214;2023-03-01T02:47:24;5.47;;;4.07;;
34902;SDS011;21114;44.840;0.214;2023-03-01T02:49:50;6.57;;;4.45;;
34902;SDS011;21114;44.840;0.214;2023-03-01T02:57:47;5.53;;;4.22;;
34902;SDS011;21114;44.840;0.214;2023-03-01T03:01:10;7.33;;;4.30;;
34902;SDS011;21114;44.840;0.214;2023-03-01T03:03:36;6.13;;;4.22;;
34902;SDS011;21114;44.840;0.214;2023-03-01T03:06:02;5.40;;;3.75;;
34902;SDS011;21114;44.840;0.214;2023-03-01T03:08:28;7.00;;;4.05;;
34902;SDS011;21114;44.840;0.214;2023-03-01T03:10:55;3.88;;;3.33;;
34902;SDS011;21114;44.840;0.214;2023-03-01T03:14:10;4.38;;;3.63;;
34902;SDS011;21114;44.840;0.214;2023-03-01T03:17:25;5.00;;;3.67;;
34902;SDS011;21114;44.840;0.214;2023-03-01T03:19:52;4.80;;;3.88;;
34902;SDS011;21114;44.840;0.214;2023-03-01T03:22:18;12.10;;;4.63;;
34902;SDS011;21114;44.840;0.214;2023-03-01T03:24:44;4.85;;;4.10;;
34902;SDS011;21114;44.840;0.214;2023-03-01T03:27:10;5.57;;;4.10;;
34902;SDS011;21114;44.840;0.214;2023-03-01T03:29:36;8.38;;;4.20;;
34902;SDS011;21114;44.840;0.214;2023-03-01T03:32:02;4.53;;;4.07;;
34902;SDS011;21114;44.840;0.214;2023-03-01T03:34:28;5.75;;;4.78;;
34902;SDS011;21114;44.840;0.214;2023-03-01T03:36:55;4.43;;;3.75;;
34902;SDS011;21114;44.840;0.214;2023-03-01T03:40:11;5.32;;;4.07;;
34902;SDS011;21114;44.840;0.214;2023-03-01T03:42:40;4.97;;;4.25;;
34902;SDS011;21114;44.840;0.214;2023-03-01T03:45:06;4.47;;;3.45;;
34902;SDS011;21114;44.840;0.214;2023-03-01T03:47:32;5.28;;;4.78;;
34902;SDS011;21114;44.840;0.214;2023-03-01T03:49:59;6.63;;;4.75;;
34902;SDS011;21114;44.840;0.214;2023-03-01T03:52:25;5.82;;;4.55;;
34902;SDS011;21114;44.840;0.214;2023-03-01T03:54:51;4.80;;;4.15;;
34902;SDS011;21114;44.840;0.214;2023-03-01T03:57:17;5.03;;;3.92;;
34902;SDS011;21114;44.840;0.214;2023-03-01T03:59:43;4.13;;;3.67;;
34902;SDS011;21114;44.840;0.214;2023-03-01T04:02:09;3.75;;;3.20;;
34902;SDS011;21114;44.840;0.214;2023-03-01T04:04:35;4.78;;;4.07;;
34902;SDS011;21114;44.840;0.214;2023-03-01T04:07:01;6.25;;;4.10;;
34902;SDS011;21114;44.840;0.214;2023-03-01T04:09:27;4.72;;;4.05;;
34902;SDS011;21114;44.840;0.214;2023-03-01T04:11:55;5.97;;;3.80;;
34902;SDS011;21114;44.840;0.214;2023-03-01T04:14:21;4.82;;;4.20;;
34902;SDS011;21114;44.840;0.214;2023-03-01T04:16:47;6.20;;;5.25;;
34902;SDS011;21114;44.840;0.214;2023-03-01T04:19:13;6.93;;;4.45;;
34902;SDS011;21114;44.840;0.214;2023-03-01T04:21:40;6.68;;;4.82;;
34902;SDS011;21114;44.840;0.214;2023-03-01T04:24:06;16.08;;;10.80;;
34902;SDS011;21114;44.840;0.214;2023-03-01T04:26:34;11.18;;;7.90;;
34902;SDS011;21114;44.840;0.214;2023-03-01T04:29:00;7.30;;;4.57;;
34902;SDS011;21114;44.840;0.214;2023-03-01T04:31:26;6.50;;;4.75;;
34902;SDS011;21114;44.840;0.214;2023-03-01T04:33:53;4.95;;;4.10;;
34902;SDS011;21114;44.840;0.214;2023-03-01T04:37:08;10.13;;;7.60;;
34902;SDS011;21114;44.840;0.214;2023-03-01T04:39:35;5.88;;;4.10;;
34902;SDS011;21114;44.840;0.214;2023-03-01T04:42:10;8.63;;;6.25;;
34902;SDS011;21114;44.840;0.214;2023-03-01T04:45:25;112.38;;;58.92;;
34902;SDS011;21114;44.840;0.214;2023-03-01T04:47:51;52.55;;;26.25;;
34902;SDS011;21114;44.840;0.214;2023-03-01T04:50:17;24.10;;;12.30;;
34902;SDS011;21114;44.840;0.214;2023-03-01T04:53:18;24.92;;;14.00;;
34902;SDS011;21114;44.840;0.214;2023-03-01T04:55:44;9.90;;;6.05;;
34902;SDS011;21114;44.840;0.214;2023-03-01T04:58:10;47.40;;;20.95;;
34902;SDS011;21114;44.840;0.214;2023-03-01T05:00:36;127.43;;;65.25;;
34902;SDS011;21114;44.840;0.214;2023-03-01T05:03:02;74.13;;;36.45;;
34902;SDS011;21114;44.840;0.214;2023-03-01T05:05:31;139.85;;;66.47;;
34902;SDS011;21114;44.840;0.214;2023-03-01T05:08:46;89.13;;;44.63;;
34902;SDS011;21114;44.840;0.214;2023-03-01T05:11:12;91.78;;;46.42;;
34902;SDS011;21114;44.840;0.214;2023-03-01T05:13:38;16.15;;;8.30;;
34902;SDS011;21114;44.840;0.214;2023-03-01T05:16:53;6.03;;;4.80;;
34902;SDS011;21114;44.840;0.214;2023-03-01T05:19:19;7.25;;;4.53;;
34902;SDS011;21114;44.840;0.214;2023-03-01T05:21:47;47.15;;;23.40;;
34902;SDS011;21114;44.840;0.214;2023-03-01T05:25:03;56.47;;;34.10;;
34902;SDS011;21114;44.840;0.214;2023-03-01T05:27:29;114.65;;;67.70;;
34902;SDS011;21114;44.840;0.214;2023-03-01T05:29:55;38.65;;;23.17;;
34902;SDS011;21114;44.840;0.214;2023-03-01T05:32:21;53.33;;;34.63;;
34902;SDS011;21114;44.840;0.214;2023-03-01T05:34:47;127.93;;;77.45;;
34902;SDS011;21114;44.840;0.214;2023-03-01T05:37:14;90.30;;;56.50;;
34902;SDS011;21114;44.840;0.214;2023-03-01T05:40:28;10.20;;;5.97;;
34902;SDS011;21114;44.840;0.214;2023-03-01T05:42:55;9.80;;;5.75;;
34902;SDS011;21114;44.840;0.214;2023-03-01T05:46:10;8.25;;;5.20;;
34902;SDS011;21114;44.840;0.214;2023-03-01T05:48:38;5.32;;;4.55;;
34902;SDS011;21114;44.840;0.214;2023-03-01T05:51:04;26.92;;;16.58;;
34902;SDS011;21114;44.840;0.214;2023-03-01T05:53:31;60.42;;;42.80;;
34902;SDS011;21114;44.840;0.214;2023-03-01T05:55:57;30.63;;;22.05;;
34902;SDS011;21114;44.840;0.214;2023-03-01T05:58:23;33.22;;;22.98;;
34902;SDS011;21114;44.840;0.214;2023-03-01T06:00:49;9.52;;;6.40;;
34902;SDS011;21114;44.840;0.214;2023-03-01T06:03:15;9.07;;;6.82;;
34902;SDS011;21114;44.840;0.214;2023-03-01T06:06:34;8.73;;;7.05;;
34902;SDS011;21114;44.840;0.214;2023-03-01T06:09:49;9.95;;;6.95;;
34902;SDS011;21114;44.840;0.214;2023-03-01T06:12:15;8.27;;;6.47;;
34902;SDS011;21114;44.840;0.214;2023-03-01T06:14:42;9.38;;;5.55;;
34902;SDS011;21114;44.840;0.214;2023-03-01T06:17:08;6.75;;;5.95;;
34902;SDS011;21114;44.840;0.214;2023-03-01T06:19:34;9.77;;;6.82;;
34902;SDS011;21114;44.840;0.214;2023-03-01T06:22:00;10.10;;;6.65;;
34902;SDS011;21114;44.840;0.214;2023-03-01T06:24:26;11.20;;;7.22;;
34902;SDS011;21114;44.840;0.214;2023-03-01T06:26:53;7.75;;;6.05;;
34902;SDS011;21114;44.840;0.214;2023-03-01T06:29:20;18.10;;;12.70;;
34902;SDS011;21114;44.840;0.214;2023-03-01T06:31:47;13.57;;;9.80;;
34902;SDS011;21114;44.840;0.214;2023-03-01T06:34:13;10.13;;;6.82;;
34902;SDS011;21114;44.840;0.214;2023-03-01T06:36:40;11.73;;;6.70;;
34902;SDS011;21114;44.840;0.214;2023-03-01T06:39:06;10.40;;;6.63;;
34902;SDS011;21114;44.840;0.214;2023-03-01T06:41:32;8.82;;;6.82;;
34902;SDS011;21114;44.840;0.214;2023-03-01T06:43:59;8.00;;;6.13;;
34902;SDS011;21114;44.840;0.214;2023-03-01T06:46:25;7.78;;;6.88;;
34902;SDS011;21114;44.840;0.214;2023-03-01T06:49:22;9.27;;;6.30;;
34902;SDS011;21114;44.840;0.214;2023-03-01T06:51:48;10.43;;;6.90;;
34902;SDS011;21114;44.840;0.214;2023-03-01T06:54:14;9.60;;;7.43;;
34902;SDS011;21114;44.840;0.214;2023-03-01T06:56:42;9.50;;;7.95;;
34902;SDS011;21114;44.840;0.214;2023-03-01T06:59:08;13.00;;;8.55;;
34902;SDS011;21114;44.840;0.214;2023-03-01T07:01:34;10.25;;;6.88;;
34902;SDS011;21114;44.840;0.214;2023-03-01T07:04:00;10.15;;;7.05;;
34902;SDS011;21114;44.840;0.214;2023-03-01T07:06:27;9.02;;;7.70;;
34902;SDS011;21114;44.840;0.214;2023-03-01T07:08:53;8.68;;;7.07;;
34902;SDS011;21114;44.840;0.214;2023-03-01T07:11:19;45.60;;;22.00;;
34902;SDS011;21114;44.840;0.214;2023-03-01T07:13:45;11.88;;;8.77;;
34902;SDS011;21114;44.840;0.214;2023-03-01T07:16:11;12.88;;;10.48;;
34902;SDS011;21114;44.840;0.214;2023-03-01T07:18:37;25.83;;;14.20;;
34902;SDS011;21114;44.840;0.214;2023-03-01T07:21:04;17.60;;;11.52;;
34902;SDS011;21114;44.840;0.214;2023-03-01T07:24:20;21.05;;;14.82;;
34902;SDS011;21114;44.840;0.214;2023-03-01T07:26:50;26.58;;;17.67;;
34902;SDS011;21114;44.840;0.214;2023-03-01T07:30:05;24.73;;;15.32;;
34902;SDS011;21114;44.840;0.214;2023-03-01T07:32:32;24.75;;;17.80;;
34902;SDS011;21114;44.840;0.214;2023-03-01T07:34:58;14.95;;;11.55;;
34902;SDS011;21114;44.840;0.214;2023-03-01T07:37:24;18.42;;;13.40;;
34902;SDS011;21114;44.840;0.214;2023-03-01T07:39:50;19.88;;;13.70;;
34902;SDS011;21114;44.840;0.214;2023-03-01T07:42:16;22.17;;;14.35;;
34902;SDS011;21114;44.840;0.214;2023-03-01T07:44:42;17.65;;;13.07;;
34902;SDS011;21114;44.840;0.214;2023-03-01T07:47:08;14.48;;;10.57;;
34902;SDS011;21114;44.840;0.214;2023-03-01T07:49:34;16.25;;;11.48;;
34902;SDS011;21114;44.840;0.214;2023-03-01T07:52:00;14.05;;;9.57;;
34902;SDS011;21114;44.840;0.214;2023-03-01T07:54:26;12.82;;;9.43;;
34902;SDS011;21114;44.840;0.214;2023-03-01T07:56:52;12.82;;;8.63;;
34902;SDS011;21114;44.840;0.214;2023-03-01T07:59:19;12.00;;;9.13;;
34902;SDS011;21114;44.840;0.214;2023-03-01T08:01:45;13.60;;;7.70;;
34902;SDS011;21114;44.840;0.214;2023-03-01T08:04:11;11.40;;;8.15;;
34902;SDS011;21114;44.840;0.214;2023-03-01T08:06:37;9.63;;;8.00;;
34902;SDS011;21114;44.840;0.214;2023-03-01T08:09:03;9.88;;;7.20;;
34902;SDS011;21114;44.840;0.214;2023-03-01T08:11:30;12.77;;;9.02;;
34902;SDS011;21114;44.840;0.214;2023-03-01T08:13:56;11.45;;;8.88;;
34902;SDS011;21114;44.840;0.214;2023-03-01T08:16:22;11.60;;;8.80;;
34902;SDS011;21114;44.840;0.214;2023-03-01T08:18:48;11.48;;;8.77;;
34902;SDS011;21114;44.840;0.214;2023-03-01T08:21:15;9.13;;;7.78;;
34902;SDS011;21114;44.840;0.214;2023-03-01T08:24:30;15.57;;;10.10;;
34902;SDS011;21114;44.840;0.214;2023-03-01T08:26:56;9.13;;;8.00;;
34902;SDS011;21114;44.840;0.214;2023-03-01T08:29:22;9.73;;;8.70;;
34902;SDS011;21114;44.840;0.214;2023-03-01T08:31:49;11.05;;;9.50;;
34902;SDS011;21114;44.840;0.214;2023-03-01T08:34:16;12.10;;;8.38;;
34902;SDS011;21114;44.840;0.214;2023-03-01T08:37:24;11.43;;;8.60;;
34902;SDS011;21114;44.840;0.214;2023-03-01T08:40:39;10.73;;;8.52;;
34902;SDS011;21114;44.840;0.214;2023-03-01T08:43:05;11.63;;;9.80;;
34902;SDS011;21114;44.840;0.214;2023-03-01T08:45:31;12.32;;;10.77;;
34902;SDS011;21114;44.840;0.214;2023-03-01T08:47:57;11.13;;;8.88;;
34902;SDS011;21114;44.840;0.214;2023-03-01T08:50:23;14.40;;;9.85;;
34902;SDS011;21114;44.840;0.214;2023-03-01T08:53:38;11.50;;;9.70;;
34902;SDS011;21114;44.840;0.214;2023-03-01T08:56:04;13.68;;;8.70;;
34902;SDS011;21114;44.840;0.214;2023-03-01T08:58:31;9.73;;;8.82;;
34902;SDS011;21114;44.840;0.214;2023-03-01T09:00:57;11.23;;;9.77;;
34902;SDS011;21114;44.840;0.214;2023-03-01T09:03:23;16.00;;;9.45;;
34902;SDS011;21114;44.840;0.214;2023-03-01T09:05:50;10.02;;;9.02;;
34902;SDS011;21114;44.840;0.214;2023-03-01T09:08:16;11.10;;;8.80;;
34902;SDS011;21114;44.840;0.214;2023-03-01T09:10:42;13.23;;;8.30;;
34902;SDS011;21114;44.840;0.214;2023-03-01T09:13:09;9.20;;;7.78;;
34902;SDS011;21114;44.840;0.214;2023-03-01T09:15:36;9.60;;;8.60;;
34902;SDS011;21114;44.840;0.214;2023-03-01T09:18:34;10.00;;;7.95;;
34902;SDS011;21114;44.840;0.214;2023-03-01T09:21:05;10.40;;;8.13;;
34902;SDS011;21114;44.840;0.214;2023-03-01T09:24:18;12.30;;;9.95;;
34902;SDS011;21114;44.840;0.214;2023-03-01T09:27:33;17.08;;;13.20;;
34902;SDS011;21114;44.840;0.214;2023-03-01T09:29:59;23.52;;;18.42;;
34902;SDS011;21114;44.840;0.214;2023-03-01T09:32:25;13.45;;;9.85;;
34902;SDS011;21114;44.840;0.214;2023-03-01T09:34:51;10.70;;;9.70;;
34902;SDS011;21114;44.840;0.214;2023-03-01T09:37:45;9.30;;;8.27;;
34902;SDS011;21114;44.840;0.214;2023-03-01T09:40:12;8.30;;;7.43;;
34902;SDS011;21114;44.840;0.214;2023-03-01T09:43:08;33.80;;;29.67;;
34902;SDS011;21114;44.840;0.214;2023-03-01T09:46:04;6.15;;;5.57;;
34902;SDS011;21114;44.840;0.214;2023-03-01T09:54:33;5.93;;;5.40;;
34902;SDS011;21114;44.840;0.214;2023-03-01T10:00:03;5.78;;;5.20;;
34902;SDS011;21114;44.840;0.214;2023-03-01T10:11:19;6.50;;;5.70;;
34902;SDS011;21114;44.840;0.214;2023-03-01T10:14:35;7.28;;;6.47;;
34902;SDS011;21114;44.840;0.214;2023-03-01T10:17:52;5.03;;;4.53;;
34902;SDS011;21114;44.840;0.214;2023-03-01T10:21:17;6.53;;;5.93;;
34902;SDS011;21114;44.840;0.214;2023-03-01T10:24:34;5.43;;;4.93;;
34902;SDS011;21114;44.840;0.214;2023-03-01T10:27:53;6.90;;;5.47;;
34902;SDS011;21114;44.840;0.214;2023-03-01T10:31:12;6.38;;;5.68;;
34902;SDS011;21114;44.840;0.214;2023-03-01T10:34:22;7.60;;;6.20;;
34902;SDS011;21114;44.840;0.214;2023-03-01T10:37:46;7.53;;;6.70;;
34902;SDS011;21114;44.840;0.214;2023-03-01T10:41:10;5.85;;;5.05;;
34902;SDS011;21114;44.840;0.214;2023-03-01T10:43:44;7.47;;;5.13;;
34902;SDS011;21114;44.840;0.214;2023-03-01T10:46:59;7.15;;;6.38;;
34902;SDS011;21114;44.840;0.214;2023-03-01T10:50:19;7.65;;;6.03;;
34902;SDS011;21114;44.840;0.214;2023-03-01T10:56:07;7.75;;;6.95;;
34902;SDS011;21114;44.840;0.214;2023-03-01T11:04:42;9.02;;;7.32;;
34902;SDS011;21114;44.840;0.214;2023-03-01T11:08:10;8.23;;;6.20;;
34902;SDS011;21114;44.840;0.214;2023-03-01T11:10:36;8.77;;;6.82;;
34902;SDS011;21114;44.840;0.214;2023-03-01T11:13:15;6.97;;;6.28;;
34902;SDS011;21114;44.840;0.214;2023-03-01T11:16:11;6.20;;;5.63;;
34902;SDS011;21114;44.840;0.214;2023-03-01T11:19:26;6.78;;;6.18;;
34902;SDS011;21114;44.840;0.214;2023-03-01T11:21:55;8.48;;;7.57;;
34902;SDS011;21114;44.840;0.214;2023-03-01T11:25:11;7.13;;;6.18;;
34902;SDS011;21114;44.840;0.214;2023-03-01T11:28:01;8.63;;;7.57;;
34902;SDS011;21114;44.840;0.214;2023-03-01T11:31:14;6.13;;;5.47;;
34902;SDS011;21114;44.840;0.214;2023-03-01T11:34:28;7.32;;;6.63;;
34902;SDS011;21114;44.840;0.214;2023-03-01T11:43:26;6.30;;;5.70;;
34902;SDS011;21114;44.840;0.214;2023-03-01T11:58:22;7.47;;;6.68;;
34902;SDS011;21114;44.840;0.214;2023-03-01T12:05:00;7.88;;;6.00;;
34902;SDS011;21114;44.840;0.214;2023-03-01T12:07:56;7.82;;;6.72;;
34902;SDS011;21114;44.840;0.214;2023-03-01T12:25:27;9.93;;;7.53;;
34902;SDS011;21114;44.840;0.214;2023-03-01T12:34:11;9.70;;;8.27;;
34902;SDS011;21114;44.840;0.214;2023-03-01T12:51:24;8.63;;;7.72;;
34902;SDS011;21114;44.840;0.214;2023-03-01T12:54:40;9.65;;;8.65;;
34902;SDS011;21114;44.840;0.214;2023-03-01T12:57:57;8.73;;;7.82;;
34902;SDS011;21114;44.840;0.214;2023-03-01T13:01:18;9.80;;;8.57;;
34902;SDS011;21114;44.840;0.214;2023-03-01T13:07:18;10.23;;;8.93;;
34902;SDS011;21114;44.840;0.214;2023-03-01T13:10:39;10.88;;;7.78;;
34902;SDS011;21114;44.840;0.214;2023-03-01T13:16:49;10.07;;;9.07;;
34902;SDS011;21114;44.840;0.214;2023-03-01T13:20:11;9.95;;;8.48;;
34902;SDS011;21114;44.840;0.214;2023-03-01T13:28:48;9.38;;;8.35;;
34902;SDS011;21114;44.840;0.214;2023-03-01T13:31:56;20.75;;;9.05;;
34902;SDS011;21114;44.840;0.214;2023-03-01T13:37:52;9.88;;;8.50;;
34902;SDS011;21114;44.840;0.214;2023-03-01T13:42:56;8.10;;;7.30;;
34902;SDS011;21114;44.840;0.214;2023-03-01T13:48:24;9.48;;;8.13;;
34902;SDS011;21114;44.840;0.214;2023-03-01T13:51:39;8.98;;;8.07;;
34902;SDS011;21114;44.840;0.214;2023-03-01T13:54:09;9.35;;;8.35;;
34902;SDS011;21114;44.840;0.214;2023-03-01T13:57:26;9.95;;;8.45;;
34902;SDS011;21114;44.840;0.214;2023-03-01T14:03:26;10.07;;;9.05;;
34902;SDS011;21114;44.840;0.214;2023-03-01T14:06:01;10.75;;;9.60;;
34902;SDS011;21114;44.840;0.214;2023-03-01T14:09:17;9.48;;;8.45;;
34902;SDS011;21114;44.840;0.214;2023-03-01T14:15:33;10.63;;;9.52;;
34902;SDS011;21114;44.840;0.214;2023-03-01T14:18:19;11.07;;;9.98;;
34902;SDS011;21114;44.840;0.214;2023-03-01T14:21:37;11.60;;;9.75;;
34902;SDS011;21114;44.840;0.214;2023-03-01T14:24:03;11.75;;;9.85;;
34902;SDS011;21114;44.840;0.214;2023-03-01T14:26:29;10.80;;;9.70;;
34902;SDS011;21114;44.840;0.214;2023-03-01T14:29:45;10.65;;;9.25;;
34902;SDS011;21114;44.840;0.214;2023-03-01T14:38:44;9.57;;;8.65;;
34902;SDS011;21114;44.840;0.214;2023-03-01T14:41:58;11.25;;;10.15;;
34902;SDS011;21114;44.840;0.214;2023-03-01T14:44:24;10.70;;;9.60;;
34902;SDS011;21114;44.840;0.214;2023-03-01T14:46:54;10.25;;;9.07;;
34902;SDS011;21114;44.840;0.214;2023-03-01T14:50:14;10.52;;;9.35;;
34902;SDS011;21114;44.840;0.214;2023-03-01T14:53:32;10.52;;;9.30;;
34902;SDS011;21114;44.840;0.214;2023-03-01T14:55:59;10.63;;;9.52;;
34902;SDS011;21114;44.840;0.214;2023-03-01T14:58:52;9.57;;;8.47;;
34902;SDS011;21114;44.840;0.214;2023-03-01T15:02:08;10.93;;;8.45;;
34902;SDS011;21114;44.840;0.214;2023-03-01T15:05:26;10.50;;;8.85;;
34902;SDS011;21114;44.840;0.214;2023-03-01T15:08:24;9.88;;;8.82;;
34902;SDS011;21114;44.840;0.214;2023-03-01T15:11:28;13.70;;;10.13;;
34902;SDS011;21114;44.840;0.214;2023-03-01T15:14:40;9.23;;;8.10;;
34902;SDS011;21114;44.840;0.214;2023-03-01T15:17:56;10.52;;;9.45;;
34902;SDS011;21114;44.840;0.214;2023-03-01T15:21:15;10.90;;;9.43;;
34902;SDS011;21114;44.840;0.214;2023-03-01T15:24:37;10.38;;;9.10;;
34902;SDS011;21114;44.840;0.214;2023-03-01T15:27:03;10.43;;;9.32;;
34902;SDS011;21114;44.840;0.214;2023-03-01T15:29:31;10.35;;;9.25;;
34902;SDS011;21114;44.840;0.214;2023-03-01T15:32:00;12.57;;;10.25;;
34902;SDS011;21114;44.840;0.214;2023-03-01T15:34:41;11.02;;;9.80;;
34902;SDS011;21114;44.840;0.214;2023-03-01T15:40:00;14.80;;;11.18;;
34902;SDS011;21114;44.840;0.214;2023-03-01T15:45:08;11.23;;;9.75;;
34902;SDS011;21114;44.840;0.214;2023-03-01T15:48:23;12.02;;;10.82;;
34902;SDS011;21114;44.840;0.214;2023-03-01T15:50:58;11.80;;;10.10;;
34902;SDS011;21114;44.840;0.214;2023-03-01T15:54:00;11.18;;;10.13;;
34902;SDS011;21114;44.840;0.214;2023-03-01T15:57:04;11.50;;;10.27;;
34902;SDS011;21114;44.840;0.214;2023-03-01T15:59:30;12.13;;;10.85;;
34902;SDS011;21114;44.840;0.214;2023-03-01T16:01:56;13.85;;;12.45;;
34902;SDS011;21114;44.840;0.214;2023-03-01T16:04:22;12.15;;;10.77;;
34902;SDS011;21114;44.840;0.214;2023-03-01T16:06:50;13.65;;;12.25;;
34902;SDS011;21114;44.840;0.214;2023-03-01T16:10:05;15.48;;;11.60;;
34902;SDS011;21114;44.840;0.214;2023-03-01T16:12:31;12.45;;;11.15;;
34902;SDS011;21114;44.840;0.214;2023-03-01T16:14:57;13.73;;;12.25;;
34902;SDS011;21114;44.840;0.214;2023-03-01T16:17:23;14.00;;;12.32;;
34902;SDS011;21114;44.840;0.214;2023-03-01T16:19:50;15.20;;;12.68;;
34902;SDS011;21114;44.840;0.214;2023-03-01T16:22:16;14.50;;;12.45;;
34902;SDS011;21114;44.840;0.214;2023-03-01T16:24:45;17.92;;;13.88;;
34902;SDS011;21114;44.840;0.214;2023-03-01T16:27:11;12.45;;;11.20;;
34902;SDS011;21114;44.840;0.214;2023-03-01T16:29:40;12.60;;;11.30;;
34902;SDS011;21114;44.840;0.214;2023-03-01T16:32:06;16.30;;;13.07;;
34902;SDS011;21114;44.840;0.214;2023-03-01T16:34:32;15.70;;;13.30;;
34902;SDS011;21114;44.840;0.214;2023-03-01T16:36:58;13.82;;;12.23;;
34902;SDS011;21114;44.840;0.214;2023-03-01T16:39:24;15.13;;;13.02;;
34902;SDS011;21114;44.840;0.214;2023-03-01T16:41:50;13.95;;;12.05;;
34902;SDS011;21114;44.840;0.214;2023-03-01T16:44:16;14.85;;;12.98;;
34902;SDS011;21114;44.840;0.214;2023-03-01T16:46:42;14.98;;;11.95;;
34902;SDS011;21114;44.840;0.214;2023-03-01T16:49:08;13.50;;;11.65;;
34902;SDS011;21114;44.840;0.214;2023-03-01T16:51:34;17.52;;;12.07;;
34902;SDS011;21114;44.840;0.214;2023-03-01T16:54:01;14.20;;;11.75;;
34902;SDS011;21114;44.840;0.214;2023-03-01T16:56:29;14.15;;;11.05;;
34902;SDS011;21114;44.840;0.214;2023-03-01T16:58:57;13.77;;;12.48;;
34902;SDS011;21114;44.840;0.214;2023-03-01T17:01:23;13.18;;;11.50;;
34902;SDS011;21114;44.840;0.214;2023-03-01T17:03:50;17.27;;;12.50;;
34902;SDS011;21114;44.840;0.214;2023-03-01T17:06:18;15.10;;;12.18;;
34902;SDS011;21114;44.840;0.214;2023-03-01T17:09:08;13.52;;;12.13;;
34902;SDS011;21114;44.840;0.214;2023-03-01T17:11:35;14.32;;;12.80;;
34902;SDS011;21114;44.840;0.214;2023-03-01T17:14:01;16.55;;;14.13;;
34902;SDS011;21114;44.840;0.214;2023-03-01T17:16:27;16.15;;;12.85;;
34902;SDS011;21114;44.840;0.214;2023-03-01T17:18:53;20.92;;;17.50;;
34902;SDS011;21114;44.840;0.214;2023-03-01T17:21:19;15.50;;;13.40;;
34902;SDS011;21114;44.840;0.214;2023-03-01T17:23:45;17.48;;;14.73;;
34902;SDS011;21114;44.840;0.214;2023-03-01T17:27:00;15.23;;;13.60;;
34902;SDS011;21114;44.840;0.214;2023-03-01T17:29:26;15.15;;;13.23;;
34902;SDS011;21114;44.840;0.214;2023-03-01T17:31:52;15.18;;;13.23;;
34902;SDS011;21114;44.840;0.214;2023-03-01T17:34:20;16.90;;;12.27;;
34902;SDS011;21114;44.840;0.214;2023-03-01T17:36:46;15.45;;;13.70;;
34902;SDS011;21114;44.840;0.214;2023-03-01T17:39:14;18.80;;;13.73;;
34902;SDS011;21114;44.840;0.214;2023-03-01T17:42:05;14.52;;;13.00;;
34902;SDS011;21114;44.840;0.214;2023-03-01T17:44:32;17.98;;;14.60;;
34902;SDS011;21114;44.840;0.214;2023-03-01T17:47:46;18.02;;;13.85;;
34902;SDS011;21114;44.840;0.214;2023-03-01T17:50:13;16.25;;;13.90;;
34902;SDS011;21114;44.840;0.214;2023-03-01T17:52:39;15.57;;;12.77;;
34902;SDS011;21114;44.840;0.214;2023-03-01T17:55:05;15.70;;;12.88;;
34902;SDS011;21114;44.840;0.214;2023-03-01T17:57:32;20.98;;;13.75;;
34902;SDS011;21114;44.840;0.214;2023-03-01T17:59:58;17.45;;;14.80;;